createdAt,value
2023-02-14T00:00:58.848Z,95.5
2023-02-14T00:05:01.639Z,95.55
2023-02-14T00:07:02.834Z,95.62
2023-02-14T00:09:04.691Z,95.6
2023-02-14T00:11:06.255Z,95.56
2023-02-14T00:13:07.422Z,95.6
2023-02-14T00:15:09.453Z,95.67
2023-02-14T00:17:11.375Z,95.6
2023-02-14T00:19:12.518Z,95.58
2023-02-14T00:21:13.947Z,95.64
2023-02-14T00:23:15.290Z,95.57
2023-02-14T00:25:17.211Z,95.65
2023-02-14T00:27:19.040Z,95.69
2023-02-14T00:29:20.236Z,95.63
2023-02-14T00:31:21.550Z,95.62
2023-02-14T00:33:23.055Z,95.65
2023-02-14T00:37:26.926Z,95.66
2023-02-14T00:39:28.058Z,95.61
2023-02-14T00:41:29.823Z,95.68
2023-02-14T00:43:31.370Z,95.64
2023-02-14T00:47:34.300Z,95.81
2023-02-14T00:49:36.009Z,95.84
2023-02-14T00:51:37.713Z,95.83
2023-02-14T00:53:38.930Z,95.82
2023-02-14T00:55:40.542Z,95.81
2023-02-14T00:57:42.398Z,95.82
2023-02-14T00:59:43.929Z,95.84
2023-02-14T01:01:45.217Z,95.78
2023-02-14T01:03:46.372Z,95.75
2023-02-14T01:05:47.862Z,95.78
2023-02-14T01:07:49.509Z,95.81
2023-02-14T01:09:50.648Z,95.9
2023-02-14T01:11:51.976Z,95.86
2023-02-14T01:13:53.774Z,95.96
2023-02-14T01:15:55.328Z,95.99
2023-02-14T01:17:56.459Z,96.11
2023-02-14T01:19:57.743Z,96.24
2023-02-14T01:21:59.595Z,96.25
2023-02-14T01:24:01.213Z,96.28
2023-02-14T01:26:02.553Z,96.29
2023-02-14T01:30:05.731Z,96.36
2023-02-14T01:32:07.686Z,96.37
2023-02-14T01:34:09.353Z,96.45
2023-02-14T01:36:10.475Z,96.47
2023-02-14T01:38:11.781Z,96.44
2023-02-14T01:40:13.114Z,96.45
2023-02-14T01:42:14.363Z,96.45
2023-02-14T01:45:00.228Z,96.54
2023-02-14T01:47:01.474Z,96.49
2023-02-14T01:49:03.307Z,96.53
2023-02-14T01:51:05.127Z,96.53
2023-02-14T01:53:07.060Z,96.53
2023-02-14T01:55:08.431Z,96.57
2023-02-14T01:57:10.340Z,96.52
2023-02-14T01:59:12.180Z,96.56
2023-02-14T02:01:13.750Z,96.57
2023-02-14T02:03:14.777Z,96.65
2023-02-14T02:07:17.798Z,96.67
2023-02-14T02:09:18.860Z,96.69
2023-02-14T02:11:20.047Z,96.71
2023-02-14T02:13:21.703Z,96.71
2023-02-14T02:15:22.974Z,96.65
2023-02-14T02:17:24.388Z,96.69
2023-02-14T02:19:26.203Z,96.66
2023-02-14T02:21:27.663Z,96.66
2023-02-14T02:23:28.757Z,96.71
2023-02-14T02:25:30.247Z,96.7
2023-02-14T02:27:32.279Z,96.68
2023-02-14T02:29:34.154Z,96.63
2023-02-14T02:31:36.027Z,96.66
2023-02-14T02:33:37.217Z,96.75
2023-02-14T02:35:39.161Z,96.78
2023-02-14T02:37:41.095Z,96.73
2023-02-14T02:39:42.486Z,96.8
2023-02-14T02:41:44.112Z,96.77
2023-02-14T02:43:46.049Z,96.71
2023-02-14T02:45:47.250Z,96.83
2023-02-14T02:49:50.731Z,96.78
2023-02-14T02:51:52.098Z,96.82
2023-02-14T02:53:53.152Z,96.73
2023-02-14T02:55:55.079Z,96.68
2023-02-14T02:57:56.636Z,96.72
2023-02-14T02:59:58.383Z,96.71
2023-02-14T03:01:59.673Z,96.65
2023-02-14T03:04:00.899Z,96.71
2023-02-14T03:06:02.764Z,96.71
2023-02-14T03:08:04.687Z,96.72
2023-02-14T03:10:06.440Z,96.73
2023-02-14T03:12:08.427Z,96.72
2023-02-14T03:14:09.823Z,96.65
2023-02-14T03:16:11.130Z,96.69
2023-02-14T03:18:12.303Z,96.76
2023-02-14T03:22:15.196Z,96.7
2023-02-14T03:24:16.798Z,96.71
2023-02-14T03:26:18.690Z,96.57
2023-02-14T03:28:20.090Z,96.57
2023-02-14T03:32:22.987Z,96.44
2023-02-14T03:34:24.447Z,96.46
2023-02-14T03:36:26.326Z,96.47
2023-02-14T03:38:27.985Z,96.38
2023-02-14T03:40:29.130Z,96.4
2023-02-14T03:42:30.692Z,96.44
2023-02-14T03:44:32.361Z,96.43
2023-02-14T03:46:34.376Z,96.44
2023-02-14T03:48:35.713Z,96.45
2023-02-14T03:50:37.671Z,96.37
2023-02-14T03:52:38.775Z,96.42
2023-02-14T03:54:40.453Z,96.45
2023-02-14T03:56:42.023Z,96.4
2023-02-14T03:58:43.181Z,96.46
2023-02-14T04:00:44.774Z,96.43
2023-02-14T04:04:47.643Z,96.45
2023-02-14T04:06:49.047Z,96.33
2023-02-14T04:08:50.854Z,96.36
2023-02-14T04:10:52.674Z,96.4
2023-02-14T04:14:55.201Z,96.35
2023-02-14T04:16:56.617Z,96.43
2023-02-14T04:18:58.238Z,96.31
2023-02-14T04:20:59.874Z,96.28
2023-02-14T04:23:03.013Z,96.39
2023-02-14T04:25:02.838Z,96.33
2023-02-14T04:27:03.880Z,96.28
2023-02-14T04:29:05.684Z,96.28
2023-02-14T04:31:07.394Z,96.36
2023-02-14T04:33:08.835Z,96.39
2023-02-14T04:35:10.144Z,96.37
2023-02-14T04:37:11.461Z,96.4
2023-02-14T04:39:13.382Z,96.36
2023-02-14T04:41:15.396Z,96.37
2023-02-14T04:43:25.085Z,96.25
2023-02-14T04:45:18.628Z,96.22
2023-02-14T04:47:20.264Z,96.31
2023-02-14T04:49:21.573Z,96.32
2023-02-14T04:51:22.862Z,96.28
2023-02-14T04:53:24.408Z,96.22
2023-02-14T04:57:28.145Z,96.28
2023-02-14T04:59:29.695Z,96.32
2023-02-14T05:03:33.124Z,96.34
2023-02-14T05:05:34.431Z,96.34
2023-02-14T05:07:36.044Z,96.37
2023-02-14T05:09:37.114Z,96.41
2023-02-14T05:11:38.323Z,96.37
2023-02-14T05:13:39.797Z,96.39
2023-02-14T05:15:41.402Z,96.32
2023-02-14T05:17:42.850Z,96.27
2023-02-14T05:19:44.225Z,96.4
2023-02-14T05:21:45.554Z,96.36
2023-02-14T05:23:46.836Z,96.32
2023-02-14T05:25:48.741Z,96.31
2023-02-14T05:27:50.032Z,96.31
2023-02-14T05:29:51.562Z,96.31
2023-02-14T05:31:52.667Z,96.3
2023-02-14T05:33:54.136Z,96.36
2023-02-14T05:35:55.339Z,96.42
2023-02-14T05:37:56.465Z,96.42
2023-02-14T05:39:58.233Z,96.38
2023-02-14T05:41:59.948Z,96.36
2023-02-14T05:46:03.063Z,96.35
2023-02-14T05:48:04.218Z,96.35
2023-02-14T05:50:05.843Z,96.4
2023-02-14T05:52:07.309Z,96.28
2023-02-14T05:56:11.001Z,96.33
2023-02-14T05:58:12.950Z,96.38
2023-02-14T06:00:14.003Z,96.33
2023-02-14T06:02:15.303Z,96.34
2023-02-14T06:04:17.000Z,96.35
2023-02-14T06:06:18.891Z,96.38
2023-02-14T06:08:20.086Z,96.41
2023-02-14T06:10:21.516Z,96.43
2023-02-14T06:12:23.191Z,96.41
2023-02-14T06:14:25.006Z,96.42
2023-02-14T06:16:26.211Z,96.4
2023-02-14T06:18:27.515Z,96.42
2023-02-14T06:20:28.695Z,96.45
2023-02-14T06:22:30.702Z,96.46
2023-02-14T06:24:31.012Z,96.48
2023-02-14T06:26:32.794Z,96.44
2023-02-14T06:28:34.615Z,96.49
2023-02-14T06:30:35.811Z,96.57
2023-02-14T06:32:37.085Z,96.5
2023-02-14T06:34:39.085Z,96.53
2023-02-14T06:38:42.063Z,96.42
2023-02-14T06:40:43.879Z,96.51
2023-02-14T06:42:45.481Z,96.47
2023-02-14T06:44:47.352Z,96.45
2023-02-14T06:46:49.133Z,96.43
2023-02-14T06:48:50.463Z,96.42
2023-02-14T06:50:52.371Z,96.43
2023-02-14T06:52:53.923Z,96.43
2023-02-14T06:54:55.641Z,96.43
2023-02-14T06:56:56.823Z,96.45
2023-02-14T06:58:58.294Z,96.4
2023-02-14T07:00:59.863Z,96.31
2023-02-14T07:03:01.430Z,96.38
2023-02-14T07:05:02.859Z,96.44
2023-02-14T07:07:04.282Z,96.43
2023-02-14T07:09:05.685Z,96.4
2023-02-14T07:11:07.270Z,96.44
2023-02-14T07:13:08.996Z,96.35
2023-02-14T07:15:10.911Z,96.25
2023-02-14T07:17:12.938Z,96.33
2023-02-14T07:21:16.390Z,96.26
2023-02-14T07:23:18.157Z,96.36
2023-02-14T07:25:19.520Z,96.37
2023-02-14T07:27:20.687Z,96.24
2023-02-14T07:29:22.230Z,96.21
2023-02-14T07:31:23.747Z,96.12
2023-02-14T07:33:25.114Z,96.17
2023-02-14T07:35:26.508Z,96.19
2023-02-14T07:37:27.579Z,96.1
2023-02-14T07:39:29.500Z,96.08
2023-02-14T07:41:30.800Z,96.1
2023-02-14T07:43:32.576Z,96.12
2023-02-14T07:45:33.697Z,95.95
2023-02-14T07:47:35.011Z,95.9
2023-02-14T07:49:36.470Z,95.91
2023-02-14T07:53:38.908Z,95.74
2023-02-14T07:55:40.055Z,95.64
2023-02-14T07:57:42.075Z,95.71
2023-02-14T07:59:43.357Z,95.63
2023-02-14T08:03:46.422Z,95.65
2023-02-14T08:05:47.617Z,95.83
2023-02-14T08:07:49.190Z,95.69
2023-02-14T08:09:50.577Z,95.56
2023-02-14T08:11:52.056Z,95.72
2023-02-14T08:13:53.384Z,95.72
2023-02-14T08:15:55.295Z,95.68
2023-02-14T08:17:57.160Z,95.64
2023-02-14T08:19:58.854Z,95.82
2023-02-14T08:21:59.987Z,95.79
2023-02-14T08:24:01.782Z,95.77
2023-02-14T08:26:03.039Z,95.77
2023-02-14T08:28:04.585Z,95.57
2023-02-14T08:28:48.507Z,95.42
2023-02-14T08:30:50.120Z,95.43
2023-02-14T08:32:51.982Z,95.56
2023-02-14T08:34:53.723Z,95.54
2023-02-14T08:36:55.449Z,95.57
2023-02-14T08:40:58.674Z,95.29
2023-02-14T08:43:00.198Z,95.2
2023-02-14T08:45:01.232Z,95.09
2023-02-14T08:47:02.326Z,95.12
2023-02-14T08:49:04.227Z,94.88
2023-02-14T08:51:05.315Z,94.91
2023-02-14T08:53:06.720Z,94.85
2023-02-14T08:55:08.613Z,94.9
2023-02-14T08:57:10.322Z,94.8
2023-02-14T08:59:11.866Z,94.67
2023-02-14T09:01:13.410Z,94.53
2023-02-14T09:03:15.001Z,94.37
2023-02-14T09:05:16.046Z,94.52
2023-02-14T09:07:17.437Z,94.57
2023-02-14T09:09:18.699Z,94.38
2023-02-14T09:11:20.359Z,94.75
2023-02-14T09:13:22.272Z,94.97
2023-02-14T09:15:23.638Z,94.17
2023-02-14T09:17:24.868Z,93.98
2023-02-14T09:19:26.142Z,93.92
2023-02-14T09:23:29.335Z,93.99
2023-02-14T09:25:31.203Z,93.86
2023-02-14T09:27:32.951Z,93.72
2023-02-14T09:29:34.787Z,93.66
2023-02-14T09:31:36.060Z,93.72
2023-02-14T09:33:37.253Z,93.56
2023-02-14T09:35:38.411Z,94.07
2023-02-14T09:39:41.641Z,94.01
2023-02-14T09:41:43.241Z,93.99
2023-02-14T09:43:45.146Z,93.19
2023-02-14T09:45:46.866Z,93.4
2023-02-14T09:47:47.964Z,93.03
2023-02-14T09:49:49.219Z,92.67
2023-02-14T09:51:51.059Z,93.55
2023-02-14T09:53:52.732Z,92.86
2023-02-14T09:55:54.265Z,93.62
2023-02-14T09:58:05.188Z,93.16
2023-02-14T09:59:57.317Z,93.27
2023-02-14T10:01:58.888Z,93
2023-02-14T10:03:59.878Z,92.95
2023-02-14T10:06:01.623Z,93.21
2023-02-14T10:08:03.154Z,92.82
2023-02-14T10:12:05.303Z,92.98
2023-02-14T10:14:06.311Z,92.79
2023-02-14T10:16:08.153Z,92.94
2023-02-14T10:18:09.278Z,92.03
2023-02-14T10:22:12.588Z,92.19
2023-02-14T10:24:14.137Z,92.11
2023-02-14T10:26:15.704Z,92.4
2023-02-14T10:28:17.060Z,92.28
2023-02-14T10:30:19.000Z,91.28
2023-02-14T10:32:20.168Z,91.65
2023-02-14T10:34:21.994Z,91.73
2023-02-14T10:36:23.613Z,91.62
2023-02-14T10:38:24.778Z,91.61
2023-02-14T10:40:26.254Z,91.84
2023-02-14T10:42:28.063Z,91.52
2023-02-14T10:44:29.793Z,91.43
2023-02-14T10:46:31.141Z,91.96
2023-02-14T10:48:32.623Z,91.52
2023-02-14T10:50:34.426Z,91.53
2023-02-14T10:52:36.040Z,91.83
2023-02-14T10:54:37.016Z,92.03
2023-02-14T10:56:38.237Z,91.76
2023-02-14T10:58:40.106Z,91.92
2023-02-14T11:00:41.113Z,91.91
2023-02-14T11:04:44.206Z,91.25
2023-02-14T11:06:45.177Z,91.56
2023-02-14T11:08:46.709Z,91.31
2023-02-14T11:10:47.874Z,91.6
2023-02-14T11:12:49.391Z,91.52
2023-02-14T11:14:50.474Z,91.42
2023-02-14T11:16:52.500Z,91.39
2023-02-14T11:18:53.796Z,90.85
2023-02-14T11:20:55.062Z,91.55
2023-02-14T11:22:56.321Z,91.29
2023-02-14T11:24:57.899Z,91.34
2023-02-14T11:26:59.469Z,90.65
2023-02-14T11:29:00.500Z,90.62
2023-02-14T11:31:01.938Z,90.54
2023-02-14T11:33:02.459Z,90.87
2023-02-14T11:37:05.032Z,90.76
2023-02-14T11:39:06.535Z,90.21
2023-02-14T11:41:07.744Z,90.32
2023-02-14T11:43:14.525Z,90.86
2023-02-14T11:47:12.121Z,90.16
2023-02-14T11:49:13.617Z,90.07
2023-02-14T11:51:15.196Z,90.66
2023-02-14T11:53:16.513Z,90.03
2023-02-14T11:55:18.295Z,90.78
2023-02-14T11:57:19.933Z,90.29
2023-02-14T11:59:21.330Z,89.66
2023-02-14T12:01:22.574Z,89.12
2023-02-14T12:03:24.495Z,89.26
2023-02-14T12:05:25.536Z,89.09
2023-02-14T12:07:27.223Z,88.84
2023-02-14T12:09:28.507Z,89.41
2023-02-14T12:11:29.610Z,88.56
2023-02-14T12:13:30.665Z,88.82
2023-02-14T12:15:32.080Z,88.6
2023-02-14T12:17:34.004Z,87.91
2023-02-14T12:19:35.179Z,88.91
2023-02-14T12:21:36.628Z,89.58
2023-02-14T12:23:37.792Z,89.97
2023-02-14T12:25:39.639Z,89.51
2023-02-14T12:27:41.608Z,88.81
2023-02-14T12:29:42.986Z,89.29
2023-02-14T12:31:44.252Z,89.82
2023-02-14T12:33:54.995Z,89.98
2023-02-14T12:35:47.656Z,88.92
2023-02-14T12:39:49.932Z,89.19
2023-02-14T12:45:54.306Z,89.37
2023-02-14T12:47:56.005Z,88.99
2023-02-14T12:49:57.867Z,89.17
2023-02-14T12:51:58.839Z,88.87
2023-02-14T12:54:00.286Z,88.49
2023-02-14T12:56:01.992Z,88.27
2023-02-14T12:58:03.252Z,89.13
2023-02-14T13:00:05.016Z,88.77
2023-02-14T13:02:06.275Z,88.18
2023-02-14T13:04:08.123Z,88.05
2023-02-14T13:06:09.171Z,88.07
2023-02-14T13:08:10.518Z,88.23
2023-02-14T13:10:12.062Z,87.8
2023-02-14T13:12:16.092Z,88.04
2023-02-14T13:14:15.096Z,87.36
2023-02-14T13:16:16.169Z,87.18
2023-02-14T13:18:17.274Z,88.52
2023-02-14T13:20:19.148Z,88.06
2023-02-14T13:22:20.152Z,87.6
2023-02-14T13:24:21.486Z,87.64
2023-02-14T13:26:30.358Z,87.51
2023-02-14T13:28:24.221Z,86.53
2023-02-14T13:30:26.172Z,86.73
2023-02-14T13:34:30.415Z,86.72
2023-02-14T13:36:31.025Z,86.02
2023-02-14T13:38:32.819Z,85.48
2023-02-14T13:40:33.902Z,85.8
2023-02-14T13:42:35.765Z,86.3
2023-02-14T13:44:37.419Z,85.96
2023-02-14T13:46:38.497Z,85.3
2023-02-14T13:48:40.205Z,86.13
2023-02-14T13:50:41.373Z,86.41
2023-02-14T13:52:42.455Z,86.24
2023-02-14T13:54:43.854Z,86.3
2023-02-14T13:56:45.710Z,86.29
2023-02-14T14:00:47.907Z,86.85
2023-02-14T14:02:49.585Z,86.51
2023-02-14T14:04:51.326Z,86.38
2023-02-14T14:06:52.340Z,86.49
2023-02-14T14:10:54.861Z,86.33
2023-02-14T14:12:56.880Z,85.95
2023-02-14T14:14:57.920Z,86.4
2023-02-14T14:16:58.977Z,86.42
2023-02-14T14:19:00.689Z,86.33
2023-02-14T14:21:01.670Z,87.09
2023-02-14T14:23:02.923Z,87.3
2023-02-14T14:25:04.357Z,86.99
2023-02-14T14:27:05.508Z,86.46
2023-02-14T14:29:06.986Z,86.87
2023-02-14T14:31:08.823Z,86.72
2023-02-14T14:33:10.409Z,86.23
2023-02-14T14:35:11.404Z,86.49
2023-02-14T14:37:12.785Z,86.43
2023-02-14T14:39:15.327Z,86.69
2023-02-14T14:41:16.378Z,86.79
2023-02-14T14:43:17.682Z,86.77
2023-02-14T14:45:19.315Z,87.22
2023-02-14T14:47:20.758Z,87.46
2023-02-14T14:49:22.607Z,86.89
2023-02-14T14:51:23.811Z,86.9
2023-02-14T14:53:25.572Z,87.33
2023-02-14T14:55:27.410Z,87.81
2023-02-14T14:59:30.320Z,86.24
2023-02-14T15:01:31.488Z,86.71
2023-02-14T15:03:33.085Z,86.58
2023-02-14T15:05:34.567Z,87.71
2023-02-14T15:07:35.920Z,86.88
2023-02-14T15:09:37.796Z,87.22
2023-02-14T15:11:39.203Z,87.49
2023-02-14T15:13:40.332Z,87.6
2023-02-14T15:16:25.998Z,87.63
2023-02-14T15:18:26.976Z,87.66
2023-02-14T15:20:28.697Z,87.82
2023-02-14T15:22:30.113Z,87.54
2023-02-14T15:24:31.467Z,88.04
2023-02-14T15:26:32.642Z,87.82
2023-02-14T15:28:34.193Z,87.94
2023-02-14T15:30:35.966Z,88.69
2023-02-14T15:32:37.589Z,88.86
2023-02-14T15:34:39.264Z,88.93
2023-02-14T15:36:40.318Z,88.86
2023-02-14T15:38:42.067Z,89
2023-02-14T15:40:43.789Z,88.67
2023-02-14T15:42:45.115Z,88.96
2023-02-14T15:46:47.384Z,89.02
2023-02-14T15:48:48.951Z,89.12
2023-02-14T15:50:50.459Z,89.2
2023-02-14T15:52:51.808Z,89.2
2023-02-14T15:54:52.881Z,89.36
2023-02-14T15:56:54.192Z,89.1
2023-02-14T15:58:56.050Z,89.27
2023-02-14T16:00:57.412Z,89.59
2023-02-14T16:02:59.069Z,89.37
2023-02-14T16:05:01.019Z,89.59
2023-02-14T16:07:02.223Z,90.1
2023-02-14T16:09:03.467Z,90.1
2023-02-14T16:11:04.803Z,90
2023-02-14T16:13:06.548Z,90.1
2023-02-14T16:15:08.413Z,90.26
2023-02-14T16:17:10.053Z,90.23
2023-02-14T16:19:11.991Z,90.35
2023-02-14T16:21:13.792Z,90.37
2023-02-14T16:23:15.038Z,90.21
2023-02-14T16:25:16.710Z,90.36
2023-02-14T16:29:20.172Z,90.44
2023-02-14T16:31:22.208Z,90.44
2023-02-14T16:33:23.887Z,90.63
2023-02-14T16:35:25.354Z,90.84
2023-02-14T16:37:26.334Z,90.77
2023-02-14T16:39:27.411Z,90.73
2023-02-14T16:41:29.016Z,90.73
2023-02-14T16:43:30.819Z,90.99
2023-02-14T16:45:32.278Z,90.98
2023-02-14T16:47:34.249Z,91.07
2023-02-14T16:49:35.630Z,91.13
2023-02-14T16:51:37.244Z,91.2
2023-02-14T16:53:38.543Z,91.33
2023-02-14T16:55:39.579Z,91.09
2023-02-14T16:57:41.599Z,91.26
2023-02-14T17:01:44.385Z,91.4
2023-02-14T17:03:46.079Z,91.45
2023-02-14T17:05:47.855Z,91.5
2023-02-14T17:07:49.729Z,91.5
2023-02-14T17:09:51.046Z,91.45
2023-02-14T17:11:52.074Z,91.39
2023-02-14T17:13:53.593Z,91.54
2023-02-14T17:15:54.740Z,91.61
2023-02-14T17:17:55.773Z,91.5
2023-02-14T17:19:56.997Z,91.76
2023-02-14T17:21:58.809Z,91.74
2023-02-14T17:23:59.851Z,91.72
2023-02-14T17:26:01.489Z,91.82
2023-02-14T17:28:02.813Z,91.76
2023-02-14T17:30:04.721Z,91.92
2023-02-14T17:32:06.049Z,91.94
2023-02-14T17:34:06.991Z,92.08
2023-02-14T17:36:10.697Z,92.12
2023-02-14T17:38:10.335Z,92.11
2023-02-14T17:40:11.342Z,92.23
2023-02-14T17:44:14.902Z,92.43
2023-02-14T17:46:16.057Z,92.42
2023-02-14T17:48:17.829Z,92.36
2023-02-14T17:50:27.345Z,92.61
2023-02-14T17:52:20.359Z,92.63
2023-02-14T17:54:21.801Z,92.71
2023-02-14T17:56:23.610Z,92.78
2023-02-14T17:58:25.274Z,92.82
2023-02-14T18:00:26.988Z,92.76
2023-02-14T18:02:29.003Z,92.82
2023-02-14T18:04:30.175Z,92.94
2023-02-14T18:06:31.873Z,93.08
2023-02-14T18:08:33.300Z,93.11
2023-02-14T18:10:34.445Z,93.11
2023-02-14T18:12:35.547Z,93.09
2023-02-14T18:16:38.115Z,93.15
2023-02-14T18:18:39.698Z,93.17
2023-02-14T18:20:40.749Z,93.09
2023-02-14T18:22:42.358Z,93.12
2023-02-14T18:26:45.883Z,93.23
2023-02-14T18:28:47.771Z,93.29
2023-02-14T18:30:48.903Z,93.27
2023-02-14T18:32:50.345Z,93.27
2023-02-14T18:34:52.010Z,93.33
2023-02-14T18:36:53.931Z,93.24
2023-02-14T18:38:55.475Z,93.26
2023-02-14T18:40:57.401Z,93.31
2023-02-14T18:42:58.850Z,93.3
2023-02-14T18:45:00.507Z,93.45
2023-02-14T18:47:02.256Z,93.45
2023-02-14T18:49:03.801Z,93.42
2023-02-14T18:51:05.757Z,93.47
2023-02-14T18:53:07.668Z,93.5
2023-02-14T18:55:09.453Z,93.58
2023-02-14T18:59:12.091Z,93.75
2023-02-14T19:01:13.624Z,93.74
2023-02-14T19:03:14.795Z,93.82
2023-02-14T19:05:16.043Z,93.92
2023-02-14T19:07:17.544Z,94.05
2023-02-14T19:09:18.693Z,94.11
2023-02-14T19:11:20.404Z,94.14
2023-02-14T19:15:23.461Z,94.11
2023-02-14T19:17:25.429Z,94.07
2023-02-14T19:19:26.563Z,94.07
2023-02-14T19:21:27.615Z,94.13
2023-02-14T19:23:28.871Z,94.01
2023-02-14T19:25:30.592Z,94.03
2023-02-14T19:27:32.618Z,94.14
2023-02-14T19:29:33.664Z,94.15
2023-02-14T19:31:35.219Z,94.1
2023-02-14T19:33:36.978Z,94.16
2023-02-14T19:35:38.682Z,94.08
2023-02-14T19:37:39.881Z,94.06
2023-02-14T19:39:41.070Z,94.04
2023-02-14T19:41:42.185Z,94.08
2023-02-14T19:43:44.041Z,94.14
2023-02-14T19:45:45.951Z,94.16
2023-02-14T19:47:47.615Z,94.12
2023-02-14T19:49:48.379Z,94.11
2023-02-14T19:51:49.768Z,94.09
2023-02-14T19:53:51.479Z,94.15
2023-02-14T19:57:54.370Z,94.32
2023-02-14T19:59:55.830Z,94.32
2023-02-14T20:01:57.339Z,94.2
2023-02-14T20:03:58.985Z,94.19
2023-02-14T20:08:01.405Z,94.3
2023-02-14T20:10:02.924Z,94.43
2023-02-14T20:12:04.497Z,94.5
2023-02-14T20:14:06.009Z,94.59
2023-02-14T20:16:07.103Z,94.58
2023-02-14T20:18:08.859Z,94.63
2023-02-14T20:20:10.799Z,94.64
2023-02-14T20:22:12.438Z,94.68
2023-02-14T20:24:13.922Z,94.67
2023-02-14T20:26:15.808Z,94.61
2023-02-14T20:28:17.413Z,94.65
2023-02-14T20:30:19.414Z,94.68
2023-02-14T20:32:21.012Z,94.72
2023-02-14T20:34:22.550Z,94.83
2023-02-14T20:36:24.164Z,94.85
2023-02-14T20:38:25.417Z,94.93
2023-02-14T20:40:26.775Z,94.95
2023-02-14T20:42:28.452Z,95.12
2023-02-14T20:44:30.110Z,95.07
2023-02-14T20:46:31.208Z,95.2
2023-02-14T20:50:33.994Z,95.43
2023-02-14T20:52:35.253Z,95.41
2023-02-14T20:54:38.725Z,95.48
2023-02-14T20:56:38.628Z,95.51
2023-02-14T20:58:40.020Z,95.51
2023-02-14T21:00:41.597Z,95.53
2023-02-14T21:02:43.106Z,95.49
2023-02-14T21:04:44.691Z,95.45
2023-02-14T21:06:45.861Z,95.49
2023-02-14T21:08:47.299Z,95.42
2023-02-14T21:10:48.984Z,95.38
2023-02-14T21:12:50.356Z,95.42
2023-02-14T21:14:52.145Z,95.39
2023-02-14T21:16:53.918Z,95.43
2023-02-14T21:18:55.454Z,95.45
2023-02-14T21:20:56.519Z,95.47
2023-02-14T21:22:58.259Z,95.41
2023-02-14T21:25:00.002Z,95.38
2023-02-14T21:27:01.399Z,95.43
2023-02-14T21:29:02.769Z,95.46
2023-02-14T21:33:06.374Z,95.57
2023-02-14T21:35:07.771Z,95.61
2023-02-14T21:37:09.623Z,95.53
2023-02-14T21:39:11.259Z,95.51
2023-02-14T21:41:12.985Z,95.59
2023-02-14T21:43:14.003Z,95.45
2023-02-14T21:45:15.598Z,95.36
2023-02-14T21:47:17.235Z,95.46
2023-02-14T21:49:18.712Z,95.43
2023-02-14T21:51:19.870Z,95.5
2023-02-14T21:53:21.538Z,95.66
2023-02-14T21:55:22.576Z,95.68
2023-02-14T21:57:23.788Z,95.64
2023-02-14T21:59:25.387Z,95.7
2023-02-14T22:00:09.268Z,95.74
2023-02-14T22:02:10.363Z,95.75
2023-02-14T22:04:12.379Z,95.68
2023-02-14T22:06:13.413Z,95.69
2023-02-14T22:10:16.591Z,95.62
2023-02-14T22:12:17.929Z,95.74
2023-02-14T22:14:19.039Z,95.95
2023-02-14T22:16:20.996Z,95.81
2023-02-14T22:18:22.778Z,95.88
2023-02-14T22:20:24.541Z,95.83
2023-02-14T22:22:26.120Z,95.85
2023-02-14T22:24:27.510Z,95.92
2023-02-14T22:26:28.890Z,95.91
2023-02-14T22:28:30.119Z,96.02
2023-02-14T22:30:31.998Z,96.09
2023-02-14T22:32:33.734Z,96.07
2023-02-14T22:34:35.369Z,96.09
2023-02-14T22:36:36.984Z,96.16
2023-02-14T22:38:38.900Z,96.05
2023-02-14T22:42:41.783Z,95.98
2023-02-14T22:44:43.723Z,96
2023-02-14T22:46:45.276Z,95.98
2023-02-14T22:48:46.985Z,96
2023-02-14T22:52:50.100Z,96.11
2023-02-14T22:54:51.474Z,96.21
2023-02-14T22:56:52.693Z,96.27
2023-02-14T22:58:53.932Z,96.32
2023-02-14T23:00:55.370Z,96.3
2023-02-14T23:02:56.913Z,96.34
2023-02-14T23:04:58.149Z,96.44
2023-02-14T23:06:59.167Z,96.45
2023-02-14T23:09:00.242Z,96.41
2023-02-14T23:11:01.737Z,96.48
2023-02-14T23:13:02.968Z,96.45
2023-02-14T23:15:04.158Z,96.42
2023-02-14T23:17:05.364Z,96.37
2023-02-14T23:19:06.570Z,96.36
2023-02-14T23:21:07.848Z,96.39
2023-02-14T23:23:09.777Z,96.35
2023-02-14T23:25:11.671Z,96.33
2023-02-14T23:27:13.467Z,96.42
2023-02-14T23:29:14.833Z,96.39
2023-02-14T23:31:16.421Z,96.31
2023-02-14T23:33:18.318Z,96.38
2023-02-14T23:35:19.964Z,96.4
2023-02-14T23:37:21.273Z,96.34
2023-02-14T23:41:24.628Z,96.32
2023-02-14T23:43:26.301Z,96.31
2023-02-14T23:45:27.485Z,96.37
2023-02-14T23:47:28.944Z,96.4
2023-02-14T23:51:31.964Z,96.3
2023-02-14T23:53:33.591Z,96.36
2023-02-14T23:55:35.477Z,96.24
2023-02-14T23:57:37.167Z,96.36
2023-02-14T23:59:38.268Z,96.22
